Holton, Indiana
Current Conditions -  °F | °C
As of 5:13 PM on Sunday 25 Jan 2015 (Local Time) from KIMS Reporting Station
Overcast Overcast  
Wind Chill: 39°   Ceiling: 3200
Heat Index: 39°   Visibility: 5mi
Dew Point: 36°   Wind: 3mph
Humidity: 87%   Direction: 110°ESE
Pressure: 29.65"   Gusts: NA
Location:  39.08°N, 85.39°W
Report Text: KIMS 252213Z AUTO 11003KT 5SM SCT024 OVC032 04/02 A2965 RMK AO1
Loading
Personal Weather Stations






























Interactive Weather Map New forecast layout! Learn more

10-Day Weather Forecast

Advertisements
Track Severe Weather on mobile